sensor_id;sensor_type;location;lat;lon;timestamp;P1;durP1;ratioP1;P2;durP2;ratioP2
65831;SDS011;52593;42.648;23.332;2024-01-30T00:00:58;8.40;;;3.00;;
65831;SDS011;52593;42.648;23.332;2024-01-30T00:03:24;9.37;;;3.43;;
65831;SDS011;52593;42.648;23.332;2024-01-30T00:05:49;8.48;;;2.38;;
65831;SDS011;52593;42.648;23.332;2024-01-30T00:08:15;9.17;;;2.67;;
65831;SDS011;52593;42.648;23.332;2024-01-30T00:10:43;9.07;;;3.03;;
65831;SDS011;52593;42.648;23.332;2024-01-30T00:13:08;9.40;;;2.70;;
65831;SDS011;52593;42.648;23.332;2024-01-30T00:15:34;7.57;;;2.13;;
65831;SDS011;52593;42.648;23.332;2024-01-30T00:18:00;9.25;;;3.22;;
65831;SDS011;52593;42.648;23.332;2024-01-30T00:20:26;16.25;;;4.80;;
65831;SDS011;52593;42.648;23.332;2024-01-30T00:22:51;14.33;;;4.67;;
65831;SDS011;52593;42.648;23.332;2024-01-30T00:25:17;12.07;;;3.97;;
65831;SDS011;52593;42.648;23.332;2024-01-30T00:27:42;13.30;;;4.40;;
65831;SDS011;52593;42.648;23.332;2024-01-30T00:30:08;11.50;;;4.00;;
65831;SDS011;52593;42.648;23.332;2024-01-30T00:32:34;9.38;;;2.70;;
65831;SDS011;52593;42.648;23.332;2024-01-30T00:35:00;7.90;;;2.43;;
65831;SDS011;52593;42.648;23.332;2024-01-30T00:37:25;7.23;;;2.37;;
65831;SDS011;52593;42.648;23.332;2024-01-30T00:39:51;7.47;;;2.60;;
65831;SDS011;52593;42.648;23.332;2024-01-30T00:42:16;7.80;;;2.37;;
65831;SDS011;52593;42.648;23.332;2024-01-30T00:44:42;7.63;;;2.30;;
65831;SDS011;52593;42.648;23.332;2024-01-30T00:47:07;8.60;;;2.30;;
65831;SDS011;52593;42.648;23.332;2024-01-30T00:49:33;8.30;;;2.70;;
65831;SDS011;52593;42.648;23.332;2024-01-30T00:51:58;7.77;;;2.20;;
65831;SDS011;52593;42.648;23.332;2024-01-30T00:54:24;8.47;;;2.60;;
65831;SDS011;52593;42.648;23.332;2024-01-30T00:56:49;6.87;;;2.57;;
65831;SDS011;52593;42.648;23.332;2024-01-30T00:59:14;6.28;;;2.20;;
65831;SDS011;52593;42.648;23.332;2024-01-30T01:01:40;6.40;;;2.10;;
65831;SDS011;52593;42.648;23.332;2024-01-30T01:04:05;8.83;;;2.43;;
65831;SDS011;52593;42.648;23.332;2024-01-30T01:06:32;12.40;;;2.35;;
65831;SDS011;52593;42.648;23.332;2024-01-30T01:08:57;8.17;;;2.50;;
65831;SDS011;52593;42.648;23.332;2024-01-30T01:11:23;8.40;;;2.67;;
65831;SDS011;52593;42.648;23.332;2024-01-30T01:13:49;8.83;;;2.67;;
65831;SDS011;52593;42.648;23.332;2024-01-30T01:16:14;9.17;;;2.73;;
65831;SDS011;52593;42.648;23.332;2024-01-30T01:18:40;8.63;;;2.33;;
65831;SDS011;52593;42.648;23.332;2024-01-30T01:21:05;6.57;;;2.10;;
65831;SDS011;52593;42.648;23.332;2024-01-30T01:23:31;7.30;;;2.57;;
65831;SDS011;52593;42.648;23.332;2024-01-30T01:25:56;8.90;;;3.35;;
65831;SDS011;52593;42.648;23.332;2024-01-30T01:28:24;7.90;;;2.53;;
65831;SDS011;52593;42.648;23.332;2024-01-30T01:30:50;9.20;;;3.05;;
65831;SDS011;52593;42.648;23.332;2024-01-30T01:33:16;7.93;;;3.17;;
65831;SDS011;52593;42.648;23.332;2024-01-30T01:35:42;10.40;;;3.38;;
65831;SDS011;52593;42.648;23.332;2024-01-30T01:38:08;10.10;;;3.00;;
65831;SDS011;52593;42.648;23.332;2024-01-30T01:40:33;8.10;;;3.13;;
65831;SDS011;52593;42.648;23.332;2024-01-30T01:43:02;9.40;;;3.00;;
65831;SDS011;52593;42.648;23.332;2024-01-30T01:45:30;9.45;;;2.97;;
65831;SDS011;52593;42.648;23.332;2024-01-30T01:47:55;8.53;;;3.00;;
65831;SDS011;52593;42.648;23.332;2024-01-30T01:50:21;8.33;;;2.87;;
65831;SDS011;52593;42.648;23.332;2024-01-30T01:52:48;10.98;;;2.72;;
65831;SDS011;52593;42.648;23.332;2024-01-30T01:55:17;8.60;;;2.90;;
65831;SDS011;52593;42.648;23.332;2024-01-30T01:57:47;8.52;;;2.72;;
65831;SDS011;52593;42.648;23.332;2024-01-30T02:00:12;9.00;;;2.57;;
65831;SDS011;52593;42.648;23.332;2024-01-30T02:02:39;11.93;;;3.55;;
65831;SDS011;52593;42.648;23.332;2024-01-30T02:05:05;9.07;;;3.25;;
65831;SDS011;52593;42.648;23.332;2024-01-30T02:07:30;7.17;;;2.67;;
65831;SDS011;52593;42.648;23.332;2024-01-30T02:09:56;8.05;;;3.15;;
65831;SDS011;52593;42.648;23.332;2024-01-30T02:12:22;10.77;;;3.03;;
65831;SDS011;52593;42.648;23.332;2024-01-30T02:14:48;8.70;;;2.80;;
65831;SDS011;52593;42.648;23.332;2024-01-30T02:17:15;9.05;;;3.08;;
65831;SDS011;52593;42.648;23.332;2024-01-30T02:19:40;9.07;;;2.87;;
65831;SDS011;52593;42.648;23.332;2024-01-30T02:22:06;9.15;;;3.10;;
65831;SDS011;52593;42.648;23.332;2024-01-30T02:24:32;8.85;;;2.92;;
65831;SDS011;52593;42.648;23.332;2024-01-30T02:26:58;9.27;;;3.10;;
65831;SDS011;52593;42.648;23.332;2024-01-30T02:29:24;7.37;;;2.30;;
65831;SDS011;52593;42.648;23.332;2024-01-30T02:31:49;8.03;;;2.33;;
65831;SDS011;52593;42.648;23.332;2024-01-30T02:36:59;8.27;;;2.15;;
65831;SDS011;52593;42.648;23.332;2024-01-30T02:39:24;6.60;;;2.20;;
65831;SDS011;52593;42.648;23.332;2024-01-30T02:41:50;6.88;;;2.15;;
65831;SDS011;52593;42.648;23.332;2024-01-30T02:44:15;7.83;;;2.07;;
65831;SDS011;52593;42.648;23.332;2024-01-30T02:46:41;6.57;;;2.47;;
65831;SDS011;52593;42.648;23.332;2024-01-30T02:49:06;7.82;;;2.78;;
65831;SDS011;52593;42.648;23.332;2024-01-30T02:51:32;7.80;;;2.27;;
65831;SDS011;52593;42.648;23.332;2024-01-30T02:53:57;7.30;;;2.20;;
65831;SDS011;52593;42.648;23.332;2024-01-30T02:56:23;6.43;;;2.07;;
65831;SDS011;52593;42.648;23.332;2024-01-30T02:58:48;8.95;;;2.22;;
65831;SDS011;52593;42.648;23.332;2024-01-30T03:01:14;7.43;;;2.40;;
65831;SDS011;52593;42.648;23.332;2024-01-30T03:03:39;7.13;;;2.03;;
65831;SDS011;52593;42.648;23.332;2024-01-30T03:06:05;7.15;;;2.35;;
65831;SDS011;52593;42.648;23.332;2024-01-30T03:08:32;7.57;;;2.20;;
65831;SDS011;52593;42.648;23.332;2024-01-30T03:10:59;9.65;;;2.38;;
65831;SDS011;52593;42.648;23.332;2024-01-30T03:13:25;8.10;;;2.03;;
65831;SDS011;52593;42.648;23.332;2024-01-30T03:15:50;7.60;;;2.13;;
65831;SDS011;52593;42.648;23.332;2024-01-30T03:18:16;7.68;;;2.33;;
65831;SDS011;52593;42.648;23.332;2024-01-30T03:20:41;9.57;;;2.77;;
65831;SDS011;52593;42.648;23.332;2024-01-30T03:23:07;8.33;;;2.53;;
65831;SDS011;52593;42.648;23.332;2024-01-30T03:25:32;9.27;;;3.10;;
65831;SDS011;52593;42.648;23.332;2024-01-30T03:27:58;7.88;;;2.72;;
65831;SDS011;52593;42.648;23.332;2024-01-30T03:30:23;6.73;;;2.10;;
65831;SDS011;52593;42.648;23.332;2024-01-30T03:32:49;8.13;;;2.33;;
65831;SDS011;52593;42.648;23.332;2024-01-30T03:35:15;7.40;;;2.42;;
65831;SDS011;52593;42.648;23.332;2024-01-30T03:37:40;9.47;;;2.60;;
65831;SDS011;52593;42.648;23.332;2024-01-30T03:40:06;7.93;;;2.58;;
65831;SDS011;52593;42.648;23.332;2024-01-30T03:42:32;6.73;;;2.53;;
65831;SDS011;52593;42.648;23.332;2024-01-30T03:44:58;7.35;;;2.10;;
65831;SDS011;52593;42.648;23.332;2024-01-30T03:47:23;9.37;;;2.23;;
65831;SDS011;52593;42.648;23.332;2024-01-30T03:49:49;10.57;;;2.40;;
65831;SDS011;52593;42.648;23.332;2024-01-30T03:52:14;7.72;;;2.08;;
65831;SDS011;52593;42.648;23.332;2024-01-30T03:54:40;6.33;;;2.20;;
65831;SDS011;52593;42.648;23.332;2024-01-30T03:57:05;8.30;;;2.47;;
65831;SDS011;52593;42.648;23.332;2024-01-30T03:59:31;9.03;;;2.80;;
65831;SDS011;52593;42.648;23.332;2024-01-30T04:01:56;7.82;;;2.35;;
65831;SDS011;52593;42.648;23.332;2024-01-30T04:04:22;7.87;;;2.70;;
65831;SDS011;52593;42.648;23.332;2024-01-30T04:06:48;6.85;;;2.05;;
65831;SDS011;52593;42.648;23.332;2024-01-30T04:09:13;8.60;;;2.03;;
65831;SDS011;52593;42.648;23.332;2024-01-30T04:11:39;6.00;;;2.03;;
65831;SDS011;52593;42.648;23.332;2024-01-30T04:14:05;6.47;;;1.97;;
65831;SDS011;52593;42.648;23.332;2024-01-30T04:16:30;7.07;;;2.00;;
65831;SDS011;52593;42.648;23.332;2024-01-30T04:18:58;8.43;;;2.23;;
65831;SDS011;52593;42.648;23.332;2024-01-30T04:21:23;5.55;;;1.80;;
65831;SDS011;52593;42.648;23.332;2024-01-30T04:23:50;6.03;;;1.80;;
65831;SDS011;52593;42.648;23.332;2024-01-30T04:26:17;6.65;;;1.75;;
65831;SDS011;52593;42.648;23.332;2024-01-30T04:28:43;6.70;;;1.90;;
65831;SDS011;52593;42.648;23.332;2024-01-30T04:31:09;9.65;;;1.90;;
65831;SDS011;52593;42.648;23.332;2024-01-30T04:33:35;5.97;;;1.73;;
65831;SDS011;52593;42.648;23.332;2024-01-30T04:36:01;5.87;;;1.87;;
65831;SDS011;52593;42.648;23.332;2024-01-30T04:38:26;8.45;;;2.20;;
65831;SDS011;52593;42.648;23.332;2024-01-30T04:40:52;6.70;;;1.87;;
65831;SDS011;52593;42.648;23.332;2024-01-30T04:43:17;9.13;;;2.40;;
65831;SDS011;52593;42.648;23.332;2024-01-30T04:45:44;6.25;;;1.70;;
65831;SDS011;52593;42.648;23.332;2024-01-30T04:48:10;8.50;;;1.90;;
65831;SDS011;52593;42.648;23.332;2024-01-30T04:50:35;7.87;;;1.97;;
65831;SDS011;52593;42.648;23.332;2024-01-30T04:53:01;7.07;;;1.47;;
65831;SDS011;52593;42.648;23.332;2024-01-30T04:55:26;7.07;;;1.75;;
65831;SDS011;52593;42.648;23.332;2024-01-30T04:57:52;6.73;;;2.20;;
65831;SDS011;52593;42.648;23.332;2024-01-30T05:00:17;7.07;;;1.60;;
65831;SDS011;52593;42.648;23.332;2024-01-30T05:02:43;6.82;;;1.83;;
65831;SDS011;52593;42.648;23.332;2024-01-30T05:05:09;7.07;;;2.03;;
65831;SDS011;52593;42.648;23.332;2024-01-30T05:07:34;7.20;;;2.20;;
65831;SDS011;52593;42.648;23.332;2024-01-30T05:09:59;8.93;;;2.53;;
65831;SDS011;52593;42.648;23.332;2024-01-30T05:12:25;8.90;;;2.57;;
65831;SDS011;52593;42.648;23.332;2024-01-30T05:14:51;10.75;;;3.00;;
65831;SDS011;52593;42.648;23.332;2024-01-30T05:17:16;9.23;;;2.47;;
65831;SDS011;52593;42.648;23.332;2024-01-30T05:19:43;6.00;;;1.90;;
65831;SDS011;52593;42.648;23.332;2024-01-30T05:22:09;5.90;;;1.92;;
65831;SDS011;52593;42.648;23.332;2024-01-30T05:24:35;5.47;;;1.80;;
65831;SDS011;52593;42.648;23.332;2024-01-30T05:27:01;8.63;;;1.98;;
65831;SDS011;52593;42.648;23.332;2024-01-30T05:29:27;6.25;;;2.50;;
65831;SDS011;52593;42.648;23.332;2024-01-30T05:31:53;7.23;;;2.37;;
65831;SDS011;52593;42.648;23.332;2024-01-30T05:34:18;6.13;;;2.33;;
65831;SDS011;52593;42.648;23.332;2024-01-30T05:36:44;15.97;;;4.77;;
65831;SDS011;52593;42.648;23.332;2024-01-30T05:39:09;25.60;;;8.13;;
65831;SDS011;52593;42.648;23.332;2024-01-30T05:41:35;37.97;;;9.60;;
65831;SDS011;52593;42.648;23.332;2024-01-30T05:44:01;46.43;;;14.80;;
65831;SDS011;52593;42.648;23.332;2024-01-30T05:46:26;41.88;;;13.27;;
65831;SDS011;52593;42.648;23.332;2024-01-30T05:48:52;37.07;;;11.57;;
65831;SDS011;52593;42.648;23.332;2024-01-30T05:51:18;28.35;;;9.27;;
65831;SDS011;52593;42.648;23.332;2024-01-30T05:53:43;21.07;;;6.77;;
65831;SDS011;52593;42.648;23.332;2024-01-30T05:56:09;19.97;;;6.40;;
65831;SDS011;52593;42.648;23.332;2024-01-30T05:58:34;27.00;;;6.55;;
65831;SDS011;52593;42.648;23.332;2024-01-30T06:01:00;21.63;;;6.37;;
65831;SDS011;52593;42.648;23.332;2024-01-30T06:03:25;14.60;;;5.30;;
65831;SDS011;52593;42.648;23.332;2024-01-30T06:05:51;16.33;;;5.45;;
65831;SDS011;52593;42.648;23.332;2024-01-30T06:08:17;24.40;;;4.70;;
65831;SDS011;52593;42.648;23.332;2024-01-30T06:10:43;15.38;;;4.20;;
65831;SDS011;52593;42.648;23.332;2024-01-30T06:13:08;10.90;;;3.40;;
65831;SDS011;52593;42.648;23.332;2024-01-30T06:15:34;17.00;;;3.80;;
65831;SDS011;52593;42.648;23.332;2024-01-30T06:17:59;22.17;;;4.43;;
65831;SDS011;52593;42.648;23.332;2024-01-30T06:20:25;19.73;;;3.73;;
65831;SDS011;52593;42.648;23.332;2024-01-30T06:22:50;18.77;;;3.85;;
65831;SDS011;52593;42.648;23.332;2024-01-30T06:25:16;27.93;;;3.93;;
65831;SDS011;52593;42.648;23.332;2024-01-30T06:27:42;17.33;;;3.10;;
65831;SDS011;52593;42.648;23.332;2024-01-30T06:30:08;17.23;;;3.57;;
65831;SDS011;52593;42.648;23.332;2024-01-30T06:32:35;13.50;;;2.45;;
65831;SDS011;52593;42.648;23.332;2024-01-30T06:35:01;13.30;;;2.97;;
65831;SDS011;52593;42.648;23.332;2024-01-30T06:37:27;11.85;;;3.35;;
65831;SDS011;52593;42.648;23.332;2024-01-30T06:39:52;9.97;;;3.70;;
65831;SDS011;52593;42.648;23.332;2024-01-30T06:42:18;17.40;;;4.67;;
65831;SDS011;52593;42.648;23.332;2024-01-30T06:44:43;13.27;;;3.60;;
65831;SDS011;52593;42.648;23.332;2024-01-30T06:47:09;13.03;;;4.20;;
65831;SDS011;52593;42.648;23.332;2024-01-30T06:49:35;11.63;;;3.78;;
65831;SDS011;52593;42.648;23.332;2024-01-30T06:52:04;13.57;;;3.75;;
65831;SDS011;52593;42.648;23.332;2024-01-30T06:54:30;15.45;;;4.13;;
65831;SDS011;52593;42.648;23.332;2024-01-30T06:56:56;15.13;;;5.17;;
65831;SDS011;52593;42.648;23.332;2024-01-30T06:59:21;15.23;;;3.73;;
65831;SDS011;52593;42.648;23.332;2024-01-30T07:01:47;14.55;;;3.22;;
65831;SDS011;52593;42.648;23.332;2024-01-30T07:04:12;13.67;;;2.47;;
65831;SDS011;52593;42.648;23.332;2024-01-30T07:06:38;6.55;;;2.00;;
65831;SDS011;52593;42.648;23.332;2024-01-30T07:09:04;5.43;;;1.60;;
65831;SDS011;52593;42.648;23.332;2024-01-30T07:11:30;6.13;;;1.95;;
65831;SDS011;52593;42.648;23.332;2024-01-30T07:13:56;4.60;;;1.30;;
65831;SDS011;52593;42.648;23.332;2024-01-30T07:16:21;8.15;;;1.40;;
65831;SDS011;52593;42.648;23.332;2024-01-30T07:18:48;4.70;;;1.08;;
65831;SDS011;52593;42.648;23.332;2024-01-30T07:21:14;5.97;;;1.33;;
65831;SDS011;52593;42.648;23.332;2024-01-30T07:23:40;4.77;;;1.40;;
65831;SDS011;52593;42.648;23.332;2024-01-30T07:26:06;11.95;;;2.30;;
65831;SDS011;52593;42.648;23.332;2024-01-30T07:28:33;7.72;;;2.20;;
65831;SDS011;52593;42.648;23.332;2024-01-30T07:30:59;6.95;;;2.17;;
65831;SDS011;52593;42.648;23.332;2024-01-30T07:33:26;7.15;;;1.67;;
65831;SDS011;52593;42.648;23.332;2024-01-30T07:35:55;4.27;;;0.97;;
65831;SDS011;52593;42.648;23.332;2024-01-30T07:38:20;4.18;;;1.20;;
65831;SDS011;52593;42.648;23.332;2024-01-30T07:40:46;4.87;;;1.13;;
65831;SDS011;52593;42.648;23.332;2024-01-30T07:43:11;5.57;;;1.40;;
65831;SDS011;52593;42.648;23.332;2024-01-30T07:45:37;4.17;;;0.93;;
65831;SDS011;52593;42.648;23.332;2024-01-30T07:48:03;25.45;;;1.50;;
65831;SDS011;52593;42.648;23.332;2024-01-30T07:50:30;5.85;;;1.13;;
65831;SDS011;52593;42.648;23.332;2024-01-30T07:52:56;4.73;;;1.17;;
65831;SDS011;52593;42.648;23.332;2024-01-30T07:55:22;3.47;;;0.95;;
65831;SDS011;52593;42.648;23.332;2024-01-30T07:57:54;6.13;;;1.07;;
65831;SDS011;52593;42.648;23.332;2024-01-30T08:00:20;3.80;;;1.02;;
65831;SDS011;52593;42.648;23.332;2024-01-30T08:02:47;5.85;;;1.08;;
65831;SDS011;52593;42.648;23.332;2024-01-30T08:05:12;19.67;;;1.88;;
65831;SDS011;52593;42.648;23.332;2024-01-30T08:07:40;4.90;;;1.20;;
65831;SDS011;52593;42.648;23.332;2024-01-30T08:10:10;5.63;;;1.48;;
65831;SDS011;52593;42.648;23.332;2024-01-30T08:12:37;6.43;;;1.58;;
65831;SDS011;52593;42.648;23.332;2024-01-30T08:15:02;6.20;;;1.60;;
65831;SDS011;52593;42.648;23.332;2024-01-30T08:17:29;6.60;;;1.58;;
65831;SDS011;52593;42.648;23.332;2024-01-30T08:19:55;5.97;;;1.53;;
65831;SDS011;52593;42.648;23.332;2024-01-30T08:22:20;5.40;;;1.60;;
65831;SDS011;52593;42.648;23.332;2024-01-30T08:24:46;5.20;;;1.40;;
65831;SDS011;52593;42.648;23.332;2024-01-30T08:27:11;7.27;;;1.80;;
65831;SDS011;52593;42.648;23.332;2024-01-30T08:29:37;5.25;;;1.20;;
65831;SDS011;52593;42.648;23.332;2024-01-30T08:32:03;4.93;;;1.20;;
65831;SDS011;52593;42.648;23.332;2024-01-30T08:34:30;5.78;;;1.75;;
65831;SDS011;52593;42.648;23.332;2024-01-30T08:36:55;5.10;;;1.30;;
65831;SDS011;52593;42.648;23.332;2024-01-30T08:39:21;8.77;;;1.20;;
65831;SDS011;52593;42.648;23.332;2024-01-30T08:41:46;5.93;;;1.52;;
65831;SDS011;52593;42.648;23.332;2024-01-30T08:44:12;5.07;;;1.40;;
65831;SDS011;52593;42.648;23.332;2024-01-30T08:46:37;7.53;;;2.40;;
65831;SDS011;52593;42.648;23.332;2024-01-30T08:49:03;10.18;;;3.47;;
65831;SDS011;52593;42.648;23.332;2024-01-30T08:51:31;5.63;;;1.47;;
65831;SDS011;52593;42.648;23.332;2024-01-30T08:53:57;5.45;;;1.73;;
65831;SDS011;52593;42.648;23.332;2024-01-30T08:56:22;10.17;;;1.70;;
65831;SDS011;52593;42.648;23.332;2024-01-30T08:58:48;5.57;;;1.67;;
65831;SDS011;52593;42.648;23.332;2024-01-30T09:01:14;4.90;;;1.43;;
65831;SDS011;52593;42.648;23.332;2024-01-30T09:03:40;6.55;;;1.80;;
65831;SDS011;52593;42.648;23.332;2024-01-30T09:06:09;6.33;;;1.90;;
65831;SDS011;52593;42.648;23.332;2024-01-30T09:08:35;6.20;;;1.83;;
65831;SDS011;52593;42.648;23.332;2024-01-30T09:11:02;4.15;;;1.50;;
65831;SDS011;52593;42.648;23.332;2024-01-30T09:13:33;9.03;;;2.37;;
65831;SDS011;52593;42.648;23.332;2024-01-30T09:15:59;7.00;;;2.25;;
65831;SDS011;52593;42.648;23.332;2024-01-30T09:18:24;9.13;;;1.83;;
65831;SDS011;52593;42.648;23.332;2024-01-30T09:20:50;8.27;;;2.17;;
65831;SDS011;52593;42.648;23.332;2024-01-30T09:23:15;7.83;;;2.00;;
65831;SDS011;52593;42.648;23.332;2024-01-30T09:25:42;5.15;;;1.77;;
65831;SDS011;52593;42.648;23.332;2024-01-30T09:28:07;13.97;;;3.40;;
65831;SDS011;52593;42.648;23.332;2024-01-30T09:30:33;17.93;;;6.03;;
65831;SDS011;52593;42.648;23.332;2024-01-30T09:32:59;10.48;;;3.90;;
65831;SDS011;52593;42.648;23.332;2024-01-30T09:35:24;10.70;;;2.70;;
65831;SDS011;52593;42.648;23.332;2024-01-30T09:37:50;8.30;;;2.50;;
65831;SDS011;52593;42.648;23.332;2024-01-30T09:40:17;7.03;;;2.42;;
65831;SDS011;52593;42.648;23.332;2024-01-30T09:42:44;10.18;;;3.45;;
65831;SDS011;52593;42.648;23.332;2024-01-30T09:45:13;16.33;;;8.20;;
65831;SDS011;52593;42.648;23.332;2024-01-30T09:47:40;11.98;;;5.40;;
65831;SDS011;52593;42.648;23.332;2024-01-30T09:50:11;12.43;;;4.78;;
65831;SDS011;52593;42.648;23.332;2024-01-30T09:52:40;7.53;;;3.03;;
65831;SDS011;52593;42.648;23.332;2024-01-30T09:55:06;6.50;;;2.27;;
65831;SDS011;52593;42.648;23.332;2024-01-30T09:57:32;11.35;;;2.75;;
65831;SDS011;52593;42.648;23.332;2024-01-30T09:59:59;6.80;;;2.00;;
65831;SDS011;52593;42.648;23.332;2024-01-30T10:02:24;7.43;;;1.97;;
65831;SDS011;52593;42.648;23.332;2024-01-30T10:04:50;6.38;;;2.10;;
65831;SDS011;52593;42.648;23.332;2024-01-30T10:07:17;7.40;;;1.90;;
65831;SDS011;52593;42.648;23.332;2024-01-30T10:09:43;5.32;;;1.92;;
65831;SDS011;52593;42.648;23.332;2024-01-30T10:12:09;7.70;;;2.00;;
65831;SDS011;52593;42.648;23.332;2024-01-30T10:14:38;6.47;;;2.43;;
65831;SDS011;52593;42.648;23.332;2024-01-30T10:17:04;7.18;;;2.85;;
65831;SDS011;52593;42.648;23.332;2024-01-30T10:19:30;7.40;;;2.40;;
65831;SDS011;52593;42.648;23.332;2024-01-30T10:21:56;8.68;;;2.60;;
65831;SDS011;52593;42.648;23.332;2024-01-30T10:24:28;6.30;;;1.97;;
65831;SDS011;52593;42.648;23.332;2024-01-30T10:26:56;8.77;;;3.25;;
65831;SDS011;52593;42.648;23.332;2024-01-30T10:29:22;10.50;;;3.90;;
65831;SDS011;52593;42.648;23.332;2024-01-30T10:32:00;12.43;;;4.03;;
65831;SDS011;52593;42.648;23.332;2024-01-30T10:34:27;8.00;;;2.20;;
65831;SDS011;52593;42.648;23.332;2024-01-30T10:37:14;11.00;;;2.30;;
65831;SDS011;52593;42.648;23.332;2024-01-30T10:39:42;9.45;;;2.42;;
65831;SDS011;52593;42.648;23.332;2024-01-30T10:42:12;7.32;;;1.80;;
65831;SDS011;52593;42.648;23.332;2024-01-30T10:47:48;7.15;;;1.65;;
65831;SDS011;52593;42.648;23.332;2024-01-30T10:50:15;6.20;;;1.73;;
65831;SDS011;52593;42.648;23.332;2024-01-30T10:52:42;4.75;;;1.45;;
65831;SDS011;52593;42.648;23.332;2024-01-30T10:55:08;6.55;;;1.90;;
65831;SDS011;52593;42.648;23.332;2024-01-30T10:57:35;9.30;;;1.70;;
65831;SDS011;52593;42.648;23.332;2024-01-30T11:00:02;6.75;;;1.90;;
65831;SDS011;52593;42.648;23.332;2024-01-30T11:02:45;12.50;;;3.33;;
65831;SDS011;52593;42.648;23.332;2024-01-30T11:05:12;13.02;;;3.30;;
65831;SDS011;52593;42.648;23.332;2024-01-30T11:07:41;5.55;;;1.33;;
65831;SDS011;52593;42.648;23.332;2024-01-30T11:10:06;4.20;;;1.20;;
65831;SDS011;52593;42.648;23.332;2024-01-30T11:12:37;14.10;;;4.03;;
65831;SDS011;52593;42.648;23.332;2024-01-30T11:15:15;7.43;;;2.50;;
65831;SDS011;52593;42.648;23.332;2024-01-30T11:20:11;12.73;;;3.63;;
65831;SDS011;52593;42.648;23.332;2024-01-30T11:22:40;7.47;;;2.17;;
65831;SDS011;52593;42.648;23.332;2024-01-30T11:25:06;7.57;;;2.00;;
65831;SDS011;52593;42.648;23.332;2024-01-30T11:27:36;9.63;;;2.80;;
65831;SDS011;52593;42.648;23.332;2024-01-30T11:30:03;6.65;;;1.80;;
65831;SDS011;52593;42.648;23.332;2024-01-30T11:32:29;5.93;;;1.90;;
65831;SDS011;52593;42.648;23.332;2024-01-30T11:34:54;7.50;;;1.80;;
65831;SDS011;52593;42.648;23.332;2024-01-30T11:37:20;7.10;;;2.00;;
65831;SDS011;52593;42.648;23.332;2024-01-30T11:39:50;11.55;;;3.33;;
65831;SDS011;52593;42.648;23.332;2024-01-30T11:42:16;6.18;;;1.52;;
65831;SDS011;52593;42.648;23.332;2024-01-30T11:44:46;10.53;;;3.20;;
65831;SDS011;52593;42.648;23.332;2024-01-30T11:47:12;8.15;;;2.30;;
65831;SDS011;52593;42.648;23.332;2024-01-30T11:49:38;5.73;;;1.53;;
65831;SDS011;52593;42.648;23.332;2024-01-30T11:52:04;8.15;;;1.85;;
65831;SDS011;52593;42.648;23.332;2024-01-30T11:54:30;6.82;;;1.42;;
65831;SDS011;52593;42.648;23.332;2024-01-30T11:56:55;7.10;;;1.50;;
65831;SDS011;52593;42.648;23.332;2024-01-30T11:59:21;11.60;;;1.65;;
65831;SDS011;52593;42.648;23.332;2024-01-30T12:01:46;6.37;;;1.70;;
65831;SDS011;52593;42.648;23.332;2024-01-30T12:04:12;8.10;;;2.10;;
65831;SDS011;52593;42.648;23.332;2024-01-30T12:06:38;7.10;;;2.13;;
65831;SDS011;52593;42.648;23.332;2024-01-30T12:09:04;7.32;;;1.85;;
65831;SDS011;52593;42.648;23.332;2024-01-30T12:11:30;5.30;;;1.63;;
65831;SDS011;52593;42.648;23.332;2024-01-30T12:13:56;5.55;;;1.85;;
65831;SDS011;52593;42.648;23.332;2024-01-30T12:16:22;6.77;;;1.90;;
65831;SDS011;52593;42.648;23.332;2024-01-30T12:18:48;6.85;;;1.90;;
65831;SDS011;52593;42.648;23.332;2024-01-30T12:21:16;6.68;;;2.00;;
65831;SDS011;52593;42.648;23.332;2024-01-30T12:23:43;8.23;;;1.80;;
65831;SDS011;52593;42.648;23.332;2024-01-30T12:26:10;5.67;;;1.93;;
65831;SDS011;52593;42.648;23.332;2024-01-30T12:28:36;7.05;;;2.17;;
65831;SDS011;52593;42.648;23.332;2024-01-30T12:31:02;7.80;;;2.50;;
65831;SDS011;52593;42.648;23.332;2024-01-30T12:33:28;11.07;;;2.10;;
65831;SDS011;52593;42.648;23.332;2024-01-30T12:35:55;6.25;;;2.20;;
65831;SDS011;52593;42.648;23.332;2024-01-30T12:38:21;7.18;;;2.53;;
65831;SDS011;52593;42.648;23.332;2024-01-30T12:40:48;6.18;;;1.83;;
65831;SDS011;52593;42.648;23.332;2024-01-30T12:43:14;7.20;;;2.00;;
65831;SDS011;52593;42.648;23.332;2024-01-30T12:45:41;6.97;;;2.00;;
65831;SDS011;52593;42.648;23.332;2024-01-30T12:48:07;5.93;;;2.10;;
65831;SDS011;52593;42.648;23.332;2024-01-30T12:50:33;6.97;;;1.83;;
65831;SDS011;52593;42.648;23.332;2024-01-30T12:52:59;5.95;;;1.55;;
65831;SDS011;52593;42.648;23.332;2024-01-30T12:55:25;6.20;;;1.90;;
65831;SDS011;52593;42.648;23.332;2024-01-30T12:57:53;6.55;;;1.65;;
65831;SDS011;52593;42.648;23.332;2024-01-30T13:00:19;5.68;;;1.83;;
65831;SDS011;52593;42.648;23.332;2024-01-30T13:02:45;6.97;;;1.67;;
65831;SDS011;52593;42.648;23.332;2024-01-30T13:05:12;7.18;;;1.98;;
65831;SDS011;52593;42.648;23.332;2024-01-30T13:07:38;6.93;;;2.20;;
65831;SDS011;52593;42.648;23.332;2024-01-30T13:10:03;5.23;;;1.77;;
65831;SDS011;52593;42.648;23.332;2024-01-30T13:12:29;8.27;;;1.90;;
65831;SDS011;52593;42.648;23.332;2024-01-30T13:14:55;8.63;;;2.05;;
65831;SDS011;52593;42.648;23.332;2024-01-30T13:17:20;7.13;;;1.90;;
65831;SDS011;52593;42.648;23.332;2024-01-30T13:19:46;6.00;;;1.77;;
65831;SDS011;52593;42.648;23.332;2024-01-30T13:22:13;6.88;;;2.10;;
65831;SDS011;52593;42.648;23.332;2024-01-30T13:24:39;6.53;;;1.90;;
65831;SDS011;52593;42.648;23.332;2024-01-30T13:27:04;9.47;;;2.20;;
65831;SDS011;52593;42.648;23.332;2024-01-30T13:29:31;6.90;;;2.10;;
65831;SDS011;52593;42.648;23.332;2024-01-30T13:31:57;6.47;;;1.77;;
65831;SDS011;52593;42.648;23.332;2024-01-30T13:34:22;4.13;;;1.23;;
65831;SDS011;52593;42.648;23.332;2024-01-30T13:36:48;5.87;;;2.13;;
65831;SDS011;52593;42.648;23.332;2024-01-30T13:39:14;5.80;;;2.00;;
65831;SDS011;52593;42.648;23.332;2024-01-30T13:41:41;8.07;;;2.43;;
65831;SDS011;52593;42.648;23.332;2024-01-30T13:44:07;6.60;;;2.30;;
65831;SDS011;52593;42.648;23.332;2024-01-30T13:46:34;6.95;;;2.30;;
65831;SDS011;52593;42.648;23.332;2024-01-30T13:49:00;8.45;;;2.65;;
65831;SDS011;52593;42.648;23.332;2024-01-30T13:51:26;7.77;;;2.33;;
65831;SDS011;52593;42.648;23.332;2024-01-30T13:53:52;8.15;;;2.78;;
65831;SDS011;52593;42.648;23.332;2024-01-30T13:56:19;14.03;;;3.43;;
65831;SDS011;52593;42.648;23.332;2024-01-30T13:58:45;6.40;;;2.05;;
65831;SDS011;52593;42.648;23.332;2024-01-30T14:01:11;6.55;;;1.83;;
65831;SDS011;52593;42.648;23.332;2024-01-30T14:03:36;8.30;;;2.00;;
65831;SDS011;52593;42.648;23.332;2024-01-30T14:06:02;6.27;;;1.73;;
65831;SDS011;52593;42.648;23.332;2024-01-30T14:08:27;8.57;;;2.47;;
65831;SDS011;52593;42.648;23.332;2024-01-30T14:10:53;6.60;;;2.33;;
65831;SDS011;52593;42.648;23.332;2024-01-30T14:13:21;5.47;;;1.77;;
65831;SDS011;52593;42.648;23.332;2024-01-30T14:15:47;8.77;;;2.30;;
65831;SDS011;52593;42.648;23.332;2024-01-30T14:18:14;8.37;;;2.30;;
65831;SDS011;52593;42.648;23.332;2024-01-30T14:20:40;6.93;;;2.03;;
65831;SDS011;52593;42.648;23.332;2024-01-30T14:23:06;7.03;;;2.20;;
65831;SDS011;52593;42.648;23.332;2024-01-30T14:25:32;7.50;;;2.00;;
65831;SDS011;52593;42.648;23.332;2024-01-30T14:27:57;7.38;;;2.45;;
65831;SDS011;52593;42.648;23.332;2024-01-30T14:30:22;8.40;;;2.50;;
65831;SDS011;52593;42.648;23.332;2024-01-30T14:32:48;7.87;;;1.73;;